sensor_id;sensor_type;location;lat;lon;timestamp;P1;durP1;ratioP1;P2;durP2;ratioP2
38717;SDS011;24468;52.128;9.278;2022-10-15T00:01:42;11.13;;;9.20;;
38717;SDS011;24468;52.128;9.278;2022-10-15T00:04:08;10.55;;;8.90;;
38717;SDS011;24468;52.128;9.278;2022-10-15T00:06:33;11.57;;;10.40;;
38717;SDS011;24468;52.128;9.278;2022-10-15T00:08:59;14.10;;;9.90;;
38717;SDS011;24468;52.128;9.278;2022-10-15T00:11:25;12.05;;;10.25;;
38717;SDS011;24468;52.128;9.278;2022-10-15T00:13:53;11.23;;;9.88;;
38717;SDS011;24468;52.128;9.278;2022-10-15T00:16:22;12.07;;;10.15;;
38717;SDS011;24468;52.128;9.278;2022-10-15T00:18:50;13.40;;;10.25;;
38717;SDS011;24468;52.128;9.278;2022-10-15T00:21:17;10.88;;;9.43;;
38717;SDS011;24468;52.128;9.278;2022-10-15T00:23:45;10.57;;;9.48;;
38717;SDS011;24468;52.128;9.278;2022-10-15T00:26:16;11.57;;;10.27;;
38717;SDS011;24468;52.128;9.278;2022-10-15T00:28:46;13.43;;;10.38;;
38717;SDS011;24468;52.128;9.278;2022-10-15T00:31:15;12.60;;;10.32;;
38717;SDS011;24468;52.128;9.278;2022-10-15T00:33:43;11.30;;;10.07;;
38717;SDS011;24468;52.128;9.278;2022-10-15T00:36:11;13.55;;;10.18;;
38717;SDS011;24468;52.128;9.278;2022-10-15T00:38:40;15.45;;;10.80;;
38717;SDS011;24468;52.128;9.278;2022-10-15T00:41:07;13.45;;;11.63;;
38717;SDS011;24468;52.128;9.278;2022-10-15T00:46:06;12.13;;;10.90;;
38717;SDS011;24468;52.128;9.278;2022-10-15T00:51:55;17.27;;;12.15;;
38717;SDS011;24468;52.128;9.278;2022-10-15T00:54:36;15.68;;;12.48;;
38717;SDS011;24468;52.128;9.278;2022-10-15T00:57:06;16.52;;;14.73;;
38717;SDS011;24468;52.128;9.278;2022-10-15T00:59:33;18.52;;;14.90;;
38717;SDS011;24468;52.128;9.278;2022-10-15T01:02:03;18.00;;;15.30;;
38717;SDS011;24468;52.128;9.278;2022-10-15T01:04:30;19.02;;;16.20;;
38717;SDS011;24468;52.128;9.278;2022-10-15T01:06:57;18.38;;;15.25;;
38717;SDS011;24468;52.128;9.278;2022-10-15T01:09:22;18.63;;;15.43;;
38717;SDS011;24468;52.128;9.278;2022-10-15T01:11:48;16.48;;;14.63;;
38717;SDS011;24468;52.128;9.278;2022-10-15T01:17:31;19.60;;;14.80;;
38717;SDS011;24468;52.128;9.278;2022-10-15T01:23:18;18.02;;;15.80;;
38717;SDS011;24468;52.128;9.278;2022-10-15T01:32:26;18.77;;;15.98;;
38717;SDS011;24468;52.128;9.278;2022-10-15T01:37:38;18.42;;;15.88;;
38717;SDS011;24468;52.128;9.278;2022-10-15T01:42:55;19.57;;;16.43;;
38717;SDS011;24468;52.128;9.278;2022-10-15T01:45:32;21.60;;;17.08;;
38717;SDS011;24468;52.128;9.278;2022-10-15T01:48:05;22.45;;;17.65;;
38717;SDS011;24468;52.128;9.278;2022-10-15T01:50:37;23.38;;;19.27;;
38717;SDS011;24468;52.128;9.278;2022-10-15T01:53:19;23.45;;;17.88;;
38717;SDS011;24468;52.128;9.278;2022-10-15T01:55:52;23.00;;;18.67;;
38717;SDS011;24468;52.128;9.278;2022-10-15T01:58:25;24.17;;;19.35;;
38717;SDS011;24468;52.128;9.278;2022-10-15T02:00:53;24.48;;;20.10;;
38717;SDS011;24468;52.128;9.278;2022-10-15T02:03:21;22.85;;;19.30;;
38717;SDS011;24468;52.128;9.278;2022-10-15T02:05:48;21.33;;;16.48;;
38717;SDS011;24468;52.128;9.278;2022-10-15T02:08:39;23.50;;;17.52;;
38717;SDS011;24468;52.128;9.278;2022-10-15T02:11:22;19.10;;;16.08;;
38717;SDS011;24468;52.128;9.278;2022-10-15T02:16:39;20.65;;;16.08;;
38717;SDS011;24468;52.128;9.278;2022-10-15T02:22:33;19.98;;;15.55;;
38717;SDS011;24468;52.128;9.278;2022-10-15T02:25:13;20.80;;;16.83;;
38717;SDS011;24468;52.128;9.278;2022-10-15T02:27:44;21.48;;;18.27;;
38717;SDS011;24468;52.128;9.278;2022-10-15T02:30:12;28.23;;;19.98;;
38717;SDS011;24468;52.128;9.278;2022-10-15T02:32:39;27.00;;;19.77;;
38717;SDS011;24468;52.128;9.278;2022-10-15T02:35:07;24.23;;;18.20;;
38717;SDS011;24468;52.128;9.278;2022-10-15T02:37:34;22.88;;;18.42;;
38717;SDS011;24468;52.128;9.278;2022-10-15T02:40:03;25.40;;;19.92;;
38717;SDS011;24468;52.128;9.278;2022-10-15T02:42:29;22.58;;;18.20;;
38717;SDS011;24468;52.128;9.278;2022-10-15T02:44:55;24.52;;;18.70;;
38717;SDS011;24468;52.128;9.278;2022-10-15T02:47:20;23.63;;;17.63;;
38717;SDS011;24468;52.128;9.278;2022-10-15T02:49:46;22.52;;;18.35;;
38717;SDS011;24468;52.128;9.278;2022-10-15T02:52:11;17.88;;;14.80;;
38717;SDS011;24468;52.128;9.278;2022-10-15T02:54:37;20.17;;;17.08;;
38717;SDS011;24468;52.128;9.278;2022-10-15T02:57:02;20.00;;;16.38;;
38717;SDS011;24468;52.128;9.278;2022-10-15T02:59:28;23.83;;;16.65;;
38717;SDS011;24468;52.128;9.278;2022-10-15T03:01:53;19.88;;;16.40;;
38717;SDS011;24468;52.128;9.278;2022-10-15T03:04:19;21.10;;;17.15;;
38717;SDS011;24468;52.128;9.278;2022-10-15T03:06:45;19.75;;;15.45;;
38717;SDS011;24468;52.128;9.278;2022-10-15T03:09:10;22.10;;;16.85;;
38717;SDS011;24468;52.128;9.278;2022-10-15T03:11:37;20.15;;;15.45;;
38717;SDS011;24468;52.128;9.278;2022-10-15T03:14:03;18.15;;;15.30;;
38717;SDS011;24468;52.128;9.278;2022-10-15T03:16:28;17.52;;;14.10;;
38717;SDS011;24468;52.128;9.278;2022-10-15T03:18:54;17.30;;;14.25;;
38717;SDS011;24468;52.128;9.278;2022-10-15T03:21:20;18.77;;;15.63;;
38717;SDS011;24468;52.128;9.278;2022-10-15T03:23:45;20.90;;;16.13;;
38717;SDS011;24468;52.128;9.278;2022-10-15T03:26:11;19.73;;;15.30;;
38717;SDS011;24468;52.128;9.278;2022-10-15T03:28:36;21.33;;;16.45;;
38717;SDS011;24468;52.128;9.278;2022-10-15T03:31:02;20.13;;;15.23;;
38717;SDS011;24468;52.128;9.278;2022-10-15T03:33:27;19.73;;;16.27;;
38717;SDS011;24468;52.128;9.278;2022-10-15T03:35:53;20.75;;;15.23;;
38717;SDS011;24468;52.128;9.278;2022-10-15T03:38:19;20.10;;;15.65;;
38717;SDS011;24468;52.128;9.278;2022-10-15T03:40:45;18.92;;;15.18;;
38717;SDS011;24468;52.128;9.278;2022-10-15T03:43:11;21.63;;;15.40;;
38717;SDS011;24468;52.128;9.278;2022-10-15T03:45:36;16.73;;;13.82;;
38717;SDS011;24468;52.128;9.278;2022-10-15T03:48:02;18.23;;;14.40;;
38717;SDS011;24468;52.128;9.278;2022-10-15T03:50:27;18.55;;;14.90;;
38717;SDS011;24468;52.128;9.278;2022-10-15T03:52:53;16.17;;;13.27;;
38717;SDS011;24468;52.128;9.278;2022-10-15T03:55:18;17.08;;;13.75;;
38717;SDS011;24468;52.128;9.278;2022-10-15T03:57:44;20.30;;;14.35;;
38717;SDS011;24468;52.128;9.278;2022-10-15T04:00:10;18.00;;;14.07;;
38717;SDS011;24468;52.128;9.278;2022-10-15T04:02:37;18.20;;;14.52;;
38717;SDS011;24468;52.128;9.278;2022-10-15T04:05:03;20.17;;;14.52;;
38717;SDS011;24468;52.128;9.278;2022-10-15T04:07:28;19.05;;;15.13;;
38717;SDS011;24468;52.128;9.278;2022-10-15T04:09:54;17.55;;;14.32;;
38717;SDS011;24468;52.128;9.278;2022-10-15T04:12:20;16.30;;;12.77;;
38717;SDS011;24468;52.128;9.278;2022-10-15T04:14:45;15.57;;;12.70;;
38717;SDS011;24468;52.128;9.278;2022-10-15T04:17:11;16.00;;;13.13;;
38717;SDS011;24468;52.128;9.278;2022-10-15T04:19:36;21.95;;;14.02;;
38717;SDS011;24468;52.128;9.278;2022-10-15T04:22:02;58.05;;;15.02;;
38717;SDS011;24468;52.128;9.278;2022-10-15T04:24:28;20.77;;;13.80;;
38717;SDS011;24468;52.128;9.278;2022-10-15T04:26:54;19.70;;;12.63;;
38717;SDS011;24468;52.128;9.278;2022-10-15T04:29:19;24.55;;;14.50;;
38717;SDS011;24468;52.128;9.278;2022-10-15T04:31:45;19.90;;;13.13;;
38717;SDS011;24468;52.128;9.278;2022-10-15T04:34:11;20.30;;;13.27;;
38717;SDS011;24468;52.128;9.278;2022-10-15T04:36:36;23.58;;;13.80;;
38717;SDS011;24468;52.128;9.278;2022-10-15T04:39:02;20.52;;;12.85;;
38717;SDS011;24468;52.128;9.278;2022-10-15T04:41:29;21.48;;;13.52;;
38717;SDS011;24468;52.128;9.278;2022-10-15T04:43:55;20.52;;;15.32;;
38717;SDS011;24468;52.128;9.278;2022-10-15T04:46:22;20.23;;;15.20;;
38717;SDS011;24468;52.128;9.278;2022-10-15T04:48:48;23.02;;;15.93;;
38717;SDS011;24468;52.128;9.278;2022-10-15T04:51:18;22.80;;;15.45;;
38717;SDS011;24468;52.128;9.278;2022-10-15T04:53:45;19.80;;;15.18;;
38717;SDS011;24468;52.128;9.278;2022-10-15T04:56:11;17.88;;;14.75;;
38717;SDS011;24468;52.128;9.278;2022-10-15T04:58:40;20.00;;;14.60;;
38717;SDS011;24468;52.128;9.278;2022-10-15T05:01:07;18.25;;;14.68;;
38717;SDS011;24468;52.128;9.278;2022-10-15T05:03:40;18.35;;;13.80;;
38717;SDS011;24468;52.128;9.278;2022-10-15T05:06:08;17.15;;;13.25;;
38717;SDS011;24468;52.128;9.278;2022-10-15T05:08:36;17.08;;;12.82;;
38717;SDS011;24468;52.128;9.278;2022-10-15T05:11:07;15.88;;;13.57;;
38717;SDS011;24468;52.128;9.278;2022-10-15T05:13:36;22.60;;;14.93;;
38717;SDS011;24468;52.128;9.278;2022-10-15T05:18:43;17.95;;;13.02;;
38717;SDS011;24468;52.128;9.278;2022-10-15T05:21:10;19.40;;;15.82;;
38717;SDS011;24468;52.128;9.278;2022-10-15T05:23:36;18.98;;;14.88;;
38717;SDS011;24468;52.128;9.278;2022-10-15T05:26:03;20.02;;;14.10;;
38717;SDS011;24468;52.128;9.278;2022-10-15T05:28:32;19.77;;;14.13;;
38717;SDS011;24468;52.128;9.278;2022-10-15T05:31:02;21.42;;;14.30;;
38717;SDS011;24468;52.128;9.278;2022-10-15T05:33:35;18.90;;;14.27;;
38717;SDS011;24468;52.128;9.278;2022-10-15T05:38:34;19.25;;;14.45;;
38717;SDS011;24468;52.128;9.278;2022-10-15T05:40:59;20.08;;;14.82;;
38717;SDS011;24468;52.128;9.278;2022-10-15T05:43:25;20.42;;;16.15;;
38717;SDS011;24468;52.128;9.278;2022-10-15T05:45:54;18.70;;;14.82;;
38717;SDS011;24468;52.128;9.278;2022-10-15T05:48:20;20.50;;;15.38;;
38717;SDS011;24468;52.128;9.278;2022-10-15T05:50:46;17.00;;;13.02;;
38717;SDS011;24468;52.128;9.278;2022-10-15T05:53:11;18.38;;;14.32;;
38717;SDS011;24468;52.128;9.278;2022-10-15T05:55:37;18.90;;;14.02;;
38717;SDS011;24468;52.128;9.278;2022-10-15T05:58:03;15.98;;;11.38;;
38717;SDS011;24468;52.128;9.278;2022-10-15T06:00:29;15.32;;;13.07;;
38717;SDS011;24468;52.128;9.278;2022-10-15T06:02:55;15.23;;;12.25;;
38717;SDS011;24468;52.128;9.278;2022-10-15T06:05:20;17.52;;;12.45;;
38717;SDS011;24468;52.128;9.278;2022-10-15T06:07:46;18.73;;;12.43;;
38717;SDS011;24468;52.128;9.278;2022-10-15T06:10:11;12.38;;;10.68;;
38717;SDS011;24468;52.128;9.278;2022-10-15T06:12:37;18.92;;;13.95;;
38717;SDS011;24468;52.128;9.278;2022-10-15T06:15:03;16.63;;;13.50;;
38717;SDS011;24468;52.128;9.278;2022-10-15T06:17:30;18.23;;;13.15;;
38717;SDS011;24468;52.128;9.278;2022-10-15T06:19:55;19.58;;;14.65;;
38717;SDS011;24468;52.128;9.278;2022-10-15T06:22:21;17.75;;;13.80;;
38717;SDS011;24468;52.128;9.278;2022-10-15T06:24:46;18.98;;;12.32;;
38717;SDS011;24468;52.128;9.278;2022-10-15T06:27:12;13.98;;;12.38;;
38717;SDS011;24468;52.128;9.278;2022-10-15T06:29:38;16.63;;;12.63;;
38717;SDS011;24468;52.128;9.278;2022-10-15T06:32:07;21.50;;;13.15;;
38717;SDS011;24468;52.128;9.278;2022-10-15T06:34:34;17.38;;;13.02;;
38717;SDS011;24468;52.128;9.278;2022-10-15T06:37:00;15.15;;;11.98;;
38717;SDS011;24468;52.128;9.278;2022-10-15T06:39:25;17.40;;;13.07;;
38717;SDS011;24468;52.128;9.278;2022-10-15T06:41:51;16.00;;;11.50;;
38717;SDS011;24468;52.128;9.278;2022-10-15T06:44:16;18.88;;;13.02;;
38717;SDS011;24468;52.128;9.278;2022-10-15T06:46:42;18.77;;;13.32;;
38717;SDS011;24468;52.128;9.278;2022-10-15T06:49:07;16.42;;;12.30;;
38717;SDS011;24468;52.128;9.278;2022-10-15T06:51:33;19.00;;;12.18;;
38717;SDS011;24468;52.128;9.278;2022-10-15T06:53:59;15.98;;;11.93;;
38717;SDS011;24468;52.128;9.278;2022-10-15T06:56:24;16.88;;;12.70;;
38717;SDS011;24468;52.128;9.278;2022-10-15T06:58:50;16.98;;;12.13;;
38717;SDS011;24468;52.128;9.278;2022-10-15T07:01:15;20.92;;;14.07;;
38717;SDS011;24468;52.128;9.278;2022-10-15T07:03:41;23.52;;;17.55;;
38717;SDS011;24468;52.128;9.278;2022-10-15T07:06:07;23.08;;;17.55;;
38717;SDS011;24468;52.128;9.278;2022-10-15T07:08:34;22.00;;;15.73;;
38717;SDS011;24468;52.128;9.278;2022-10-15T07:11:04;20.75;;;16.23;;
38717;SDS011;24468;52.128;9.278;2022-10-15T07:13:33;24.05;;;16.13;;
38717;SDS011;24468;52.128;9.278;2022-10-15T07:16:03;24.40;;;16.95;;
38717;SDS011;24468;52.128;9.278;2022-10-15T07:18:33;25.75;;;16.80;;
38717;SDS011;24468;52.128;9.278;2022-10-15T07:21:00;19.98;;;15.70;;
38717;SDS011;24468;52.128;9.278;2022-10-15T07:23:27;20.35;;;15.95;;
38717;SDS011;24468;52.128;9.278;2022-10-15T07:25:53;22.38;;;16.92;;
38717;SDS011;24468;52.128;9.278;2022-10-15T07:28:22;22.83;;;16.65;;
38717;SDS011;24468;52.128;9.278;2022-10-15T07:30:47;24.10;;;17.55;;
38717;SDS011;24468;52.128;9.278;2022-10-15T07:33:13;20.50;;;15.57;;
38717;SDS011;24468;52.128;9.278;2022-10-15T07:35:39;18.17;;;14.25;;
38717;SDS011;24468;52.128;9.278;2022-10-15T07:38:04;22.60;;;15.40;;
38717;SDS011;24468;52.128;9.278;2022-10-15T07:40:30;22.40;;;16.35;;
38717;SDS011;24468;52.128;9.278;2022-10-15T07:42:56;19.75;;;14.77;;
38717;SDS011;24468;52.128;9.278;2022-10-15T07:45:24;16.42;;;14.10;;
38717;SDS011;24468;52.128;9.278;2022-10-15T07:47:51;18.70;;;14.63;;
38717;SDS011;24468;52.128;9.278;2022-10-15T07:50:17;17.23;;;14.52;;
38717;SDS011;24468;52.128;9.278;2022-10-15T07:52:44;20.15;;;15.88;;
38717;SDS011;24468;52.128;9.278;2022-10-15T07:55:10;21.45;;;16.10;;
38717;SDS011;24468;52.128;9.278;2022-10-15T07:57:36;19.58;;;16.02;;
38717;SDS011;24468;52.128;9.278;2022-10-15T08:00:01;18.67;;;15.13;;
38717;SDS011;24468;52.128;9.278;2022-10-15T08:02:28;22.15;;;16.13;;
38717;SDS011;24468;52.128;9.278;2022-10-15T08:04:54;21.38;;;16.95;;
38717;SDS011;24468;52.128;9.278;2022-10-15T08:07:19;22.92;;;16.50;;
38717;SDS011;24468;52.128;9.278;2022-10-15T08:09:45;22.50;;;16.80;;
38717;SDS011;24468;52.128;9.278;2022-10-15T08:12:10;20.67;;;15.93;;
38717;SDS011;24468;52.128;9.278;2022-10-15T08:14:36;18.63;;;14.90;;
38717;SDS011;24468;52.128;9.278;2022-10-15T08:17:03;20.92;;;15.65;;
38717;SDS011;24468;52.128;9.278;2022-10-15T08:19:29;20.48;;;16.15;;
38717;SDS011;24468;52.128;9.278;2022-10-15T08:21:55;20.80;;;16.30;;
38717;SDS011;24468;52.128;9.278;2022-10-15T08:24:21;20.17;;;16.27;;
38717;SDS011;24468;52.128;9.278;2022-10-15T08:26:47;18.25;;;14.95;;
38717;SDS011;24468;52.128;9.278;2022-10-15T08:29:13;22.25;;;18.38;;
38717;SDS011;24468;52.128;9.278;2022-10-15T08:31:39;21.65;;;16.35;;
38717;SDS011;24468;52.128;9.278;2022-10-15T08:34:05;24.00;;;15.50;;
38717;SDS011;24468;52.128;9.278;2022-10-15T08:36:30;18.90;;;15.73;;
38717;SDS011;24468;52.128;9.278;2022-10-15T08:38:56;18.70;;;15.65;;
38717;SDS011;24468;52.128;9.278;2022-10-15T08:43:57;18.05;;;15.30;;
38717;SDS011;24468;52.128;9.278;2022-10-15T08:46:27;20.67;;;14.75;;
38717;SDS011;24468;52.128;9.278;2022-10-15T08:48:57;17.63;;;15.00;;
38717;SDS011;24468;52.128;9.278;2022-10-15T08:51:25;16.80;;;15.02;;
38717;SDS011;24468;52.128;9.278;2022-10-15T08:54:03;18.85;;;14.52;;
38717;SDS011;24468;52.128;9.278;2022-10-15T08:56:37;15.25;;;13.73;;
38717;SDS011;24468;52.128;9.278;2022-10-15T08:59:22;16.85;;;13.13;;
38717;SDS011;24468;52.128;9.278;2022-10-15T09:02:19;17.50;;;15.70;;
38717;SDS011;24468;52.128;9.278;2022-10-15T09:05:23;17.65;;;15.60;;
38717;SDS011;24468;52.128;9.278;2022-10-15T09:07:56;20.08;;;17.45;;
38717;SDS011;24468;52.128;9.278;2022-10-15T09:10:56;17.77;;;15.88;;
38717;SDS011;24468;52.128;9.278;2022-10-15T09:13:42;18.55;;;15.45;;
38717;SDS011;24468;52.128;9.278;2022-10-15T09:16:21;23.80;;;18.02;;
38717;SDS011;24468;52.128;9.278;2022-10-15T09:18:56;17.65;;;15.82;;
38717;SDS011;24468;52.128;9.278;2022-10-15T09:21:24;20.45;;;18.13;;
38717;SDS011;24468;52.128;9.278;2022-10-15T09:23:51;19.83;;;17.73;;
38717;SDS011;24468;52.128;9.278;2022-10-15T09:26:55;28.20;;;17.50;;
38717;SDS011;24468;52.128;9.278;2022-10-15T09:29:46;18.45;;;16.42;;
38717;SDS011;24468;52.128;9.278;2022-10-15T09:32:24;18.73;;;16.15;;
38717;SDS011;24468;52.128;9.278;2022-10-15T09:35:23;19.83;;;15.63;;
38717;SDS011;24468;52.128;9.278;2022-10-15T09:38:26;17.38;;;14.45;;
38717;SDS011;24468;52.128;9.278;2022-10-15T09:44:11;20.27;;;18.08;;
38717;SDS011;24468;52.128;9.278;2022-10-15T09:46:44;17.30;;;15.40;;
38717;SDS011;24468;52.128;9.278;2022-10-15T09:49:16;17.60;;;14.65;;
38717;SDS011;24468;52.128;9.278;2022-10-15T09:54:44;13.10;;;11.70;;
38717;SDS011;24468;52.128;9.278;2022-10-15T09:57:50;13.90;;;12.38;;
38717;SDS011;24468;52.128;9.278;2022-10-15T10:00:19;14.05;;;12.57;;
38717;SDS011;24468;52.128;9.278;2022-10-15T10:03:02;13.75;;;12.35;;
38717;SDS011;24468;52.128;9.278;2022-10-15T10:05:38;16.20;;;12.98;;
38717;SDS011;24468;52.128;9.278;2022-10-15T10:08:20;13.63;;;12.00;;
38717;SDS011;24468;52.128;9.278;2022-10-15T10:10:55;16.40;;;11.93;;
38717;SDS011;24468;52.128;9.278;2022-10-15T10:13:28;13.80;;;11.30;;
38717;SDS011;24468;52.128;9.278;2022-10-15T10:16:05;14.13;;;10.90;;
38717;SDS011;24468;52.128;9.278;2022-10-15T10:18:34;11.95;;;10.75;;
38717;SDS011;24468;52.128;9.278;2022-10-15T10:21:02;13.52;;;11.55;;
38717;SDS011;24468;52.128;9.278;2022-10-15T10:23:51;14.23;;;10.50;;
38717;SDS011;24468;52.128;9.278;2022-10-15T10:26:16;13.98;;;12.10;;
38717;SDS011;24468;52.128;9.278;2022-10-15T10:28:52;13.35;;;11.95;;
38717;SDS011;24468;52.128;9.278;2022-10-15T10:31:27;13.70;;;11.25;;
38717;SDS011;24468;52.128;9.278;2022-10-15T10:33:59;9.77;;;8.70;;
38717;SDS011;24468;52.128;9.278;2022-10-15T10:41:50;10.18;;;8.85;;
38717;SDS011;24468;52.128;9.278;2022-10-15T10:47:13;10.35;;;8.27;;
38717;SDS011;24468;52.128;9.278;2022-10-15T10:49:53;11.43;;;8.80;;
38717;SDS011;24468;52.128;9.278;2022-10-15T10:55:05;8.07;;;7.10;;
38717;SDS011;24468;52.128;9.278;2022-10-15T11:00:40;7.53;;;6.70;;
38717;SDS011;24468;52.128;9.278;2022-10-15T11:06:00;6.43;;;5.82;;
38717;SDS011;24468;52.128;9.278;2022-10-15T11:08:48;6.30;;;5.28;;
38717;SDS011;24468;52.128;9.278;2022-10-15T11:11:50;5.82;;;4.80;;
38717;SDS011;24468;52.128;9.278;2022-10-15T11:26:22;7.60;;;5.07;;
38717;SDS011;24468;52.128;9.278;2022-10-15T11:29:14;6.88;;;5.22;;
38717;SDS011;24468;52.128;9.278;2022-10-15T11:35:16;5.68;;;5.10;;
38717;SDS011;24468;52.128;9.278;2022-10-15T11:43:56;4.53;;;4.13;;
38717;SDS011;24468;52.128;9.278;2022-10-15T11:46:41;5.35;;;4.85;;
38717;SDS011;24468;52.128;9.278;2022-10-15T11:52:52;4.82;;;4.43;;
38717;SDS011;24468;52.128;9.278;2022-10-15T11:55:40;5.88;;;3.83;;
38717;SDS011;24468;52.128;9.278;2022-10-15T11:58:38;4.40;;;4.00;;
38717;SDS011;24468;52.128;9.278;2022-10-15T12:03:56;4.90;;;3.80;;
38717;SDS011;24468;52.128;9.278;2022-10-15T12:06:29;4.65;;;3.70;;
38717;SDS011;24468;52.128;9.278;2022-10-15T12:09:01;3.38;;;3.08;;
38717;SDS011;24468;52.128;9.278;2022-10-15T12:11:32;3.67;;;3.35;;
38717;SDS011;24468;52.128;9.278;2022-10-15T12:14:27;3.45;;;3.15;;
38717;SDS011;24468;52.128;9.278;2022-10-15T12:20:13;3.25;;;2.95;;
38717;SDS011;24468;52.128;9.278;2022-10-15T12:28:16;3.67;;;2.72;;
38717;SDS011;24468;52.128;9.278;2022-10-15T12:30:52;3.53;;;2.58;;
38717;SDS011;24468;52.128;9.278;2022-10-15T12:33:34;2.97;;;2.78;;
38717;SDS011;24468;52.128;9.278;2022-10-15T12:38:57;3.28;;;2.20;;
38717;SDS011;24468;52.128;9.278;2022-10-15T12:41:36;3.10;;;2.85;;
38717;SDS011;24468;52.128;9.278;2022-10-15T12:44:19;2.75;;;2.55;;
38717;SDS011;24468;52.128;9.278;2022-10-15T12:46:49;3.13;;;2.83;;
38717;SDS011;24468;52.128;9.278;2022-10-15T12:51:50;2.60;;;2.40;;
38717;SDS011;24468;52.128;9.278;2022-10-15T12:54:36;2.42;;;2.22;;
38717;SDS011;24468;52.128;9.278;2022-10-15T12:59:55;3.33;;;2.63;;
38717;SDS011;24468;52.128;9.278;2022-10-15T13:02:30;3.35;;;1.92;;
38717;SDS011;24468;52.128;9.278;2022-10-15T13:05:22;2.15;;;1.95;;
38717;SDS011;24468;52.128;9.278;2022-10-15T13:07:48;2.20;;;2.00;;
38717;SDS011;24468;52.128;9.278;2022-10-15T13:10:19;2.25;;;2.00;;
38717;SDS011;24468;52.128;9.278;2022-10-15T13:12:59;3.50;;;1.75;;
38717;SDS011;24468;52.128;9.278;2022-10-15T13:15:30;4.60;;;1.80;;
38717;SDS011;24468;52.128;9.278;2022-10-15T13:17:57;1.77;;;1.67;;
38717;SDS011;24468;52.128;9.278;2022-10-15T13:20:34;2.45;;;2.25;;
38717;SDS011;24468;52.128;9.278;2022-10-15T13:28:51;2.80;;;2.08;;
38717;SDS011;24468;52.128;9.278;2022-10-15T13:31:21;3.08;;;1.50;;
38717;SDS011;24468;52.128;9.278;2022-10-15T13:37:01;1.15;;;1.13;;
38717;SDS011;24468;52.128;9.278;2022-10-15T13:39:35;2.42;;;1.15;;
38717;SDS011;24468;52.128;9.278;2022-10-15T13:42:07;2.20;;;1.50;;
38717;SDS011;24468;52.128;9.278;2022-10-15T13:44:33;1.75;;;1.00;;
38717;SDS011;24468;52.128;9.278;2022-10-15T13:46:59;0.80;;;0.80;;
38717;SDS011;24468;52.128;9.278;2022-10-15T13:49:24;0.93;;;0.93;;
38717;SDS011;24468;52.128;9.278;2022-10-15T13:51:51;0.90;;;0.90;;
38717;SDS011;24468;52.128;9.278;2022-10-15T13:54:24;1.08;;;0.82;;
38717;SDS011;24468;52.128;9.278;2022-10-15T13:56:55;2.17;;;0.50;;
38717;SDS011;24468;52.128;9.278;2022-10-15T13:59:25;2.50;;;0.70;;
38717;SDS011;24468;52.128;9.278;2022-10-15T14:01:55;2.53;;;0.90;;
38717;SDS011;24468;52.128;9.278;2022-10-15T14:04:27;0.77;;;0.75;;
38717;SDS011;24468;52.128;9.278;2022-10-15T14:06:59;1.60;;;0.77;;
38717;SDS011;24468;52.128;9.278;2022-10-15T14:11:59;4.55;;;0.80;;
38717;SDS011;24468;52.128;9.278;2022-10-15T14:14:35;1.88;;;0.50;;
38717;SDS011;24468;52.128;9.278;2022-10-15T14:17:11;0.60;;;0.38;;
38717;SDS011;24468;52.128;9.278;2022-10-15T14:19:53;2.92;;;0.65;;
38717;SDS011;24468;52.128;9.278;2022-10-15T14:22:26;1.42;;;0.50;;
38717;SDS011;24468;52.128;9.278;2022-10-15T14:24:52;1.85;;;0.60;;
38717;SDS011;24468;52.128;9.278;2022-10-15T14:27:23;0.98;;;0.50;;
38717;SDS011;24468;52.128;9.278;2022-10-15T14:29:52;0.60;;;0.30;;
38717;SDS011;24468;52.128;9.278;2022-10-15T14:32:22;0.70;;;0.43;;
38717;SDS011;24468;52.128;9.278;2022-10-15T14:34:56;0.60;;;0.55;;
38717;SDS011;24468;52.128;9.278;2022-10-15T14:42:34;1.02;;;0.60;;
38717;SDS011;24468;52.128;9.278;2022-10-15T14:47:49;0.57;;;0.40;;
38717;SDS011;24468;52.128;9.278;2022-10-15T14:50:25;0.70;;;0.50;;
38717;SDS011;24468;52.128;9.278;2022-10-15T14:52:58;1.52;;;0.90;;
38717;SDS011;24468;52.128;9.278;2022-10-15T14:55:34;0.85;;;0.82;;
38717;SDS011;24468;52.128;9.278;2022-10-15T14:58:09;4.90;;;0.80;;
38717;SDS011;24468;52.128;9.278;2022-10-15T15:00:42;0.73;;;0.55;;
38717;SDS011;24468;52.128;9.278;2022-10-15T15:03:12;0.93;;;0.77;;
38717;SDS011;24468;52.128;9.278;2022-10-15T15:05:47;1.33;;;0.80;;
38717;SDS011;24468;52.128;9.278;2022-10-15T15:08:16;0.98;;;0.47;;
38717;SDS011;24468;52.128;9.278;2022-10-15T15:10:42;3.38;;;0.60;;
38717;SDS011;24468;52.128;9.278;2022-10-15T15:13:13;3.65;;;0.70;;
38717;SDS011;24468;52.128;9.278;2022-10-15T15:15:49;0.95;;;0.52;;
38717;SDS011;24468;52.128;9.278;2022-10-15T15:18:15;0.70;;;0.70;;
38717;SDS011;24468;52.128;9.278;2022-10-15T15:20:41;0.70;;;0.70;;
38717;SDS011;24468;52.128;9.278;2022-10-15T15:23:13;1.33;;;0.93;;
38717;SDS011;24468;52.128;9.278;2022-10-15T15:25:46;0.95;;;0.90;;
38717;SDS011;24468;52.128;9.278;2022-10-15T15:28:13;1.50;;;0.80;;
38717;SDS011;24468;52.128;9.278;2022-10-15T15:30:44;1.27;;;1.15;;
38717;SDS011;24468;52.128;9.278;2022-10-15T15:33:14;3.05;;;1.75;;
38717;SDS011;24468;52.128;9.278;2022-10-15T15:35:41;1.25;;;1.05;;
38717;SDS011;24468;52.128;9.278;2022-10-15T15:38:17;2.45;;;0.90;;
38717;SDS011;24468;52.128;9.278;2022-10-15T15:40:48;0.50;;;0.50;;
38717;SDS011;24468;52.128;9.278;2022-10-15T15:43:15;0.43;;;0.40;;
38717;SDS011;24468;52.128;9.278;2022-10-15T15:45:43;0.93;;;0.52;;
38717;SDS011;24468;52.128;9.278;2022-10-15T15:48:10;1.05;;;0.60;;
38717;SDS011;24468;52.128;9.278;2022-10-15T15:50:35;1.85;;;0.45;;
38717;SDS011;24468;52.128;9.278;2022-10-15T15:53:01;2.08;;;0.50;;
38717;SDS011;24468;52.128;9.278;2022-10-15T15:55:27;0.43;;;0.40;;
38717;SDS011;24468;52.128;9.278;2022-10-15T15:57:53;0.82;;;0.45;;
38717;SDS011;24468;52.128;9.278;2022-10-15T16:00:19;2.70;;;1.00;;
38717;SDS011;24468;52.128;9.278;2022-10-15T16:02:45;0.70;;;0.50;;
38717;SDS011;24468;52.128;9.278;2022-10-15T16:05:12;2.33;;;0.95;;
38717;SDS011;24468;52.128;9.278;2022-10-15T16:07:40;2.35;;;1.73;;
38717;SDS011;24468;52.128;9.278;2022-10-15T16:10:07;1.50;;;1.08;;
38717;SDS011;24468;52.128;9.278;2022-10-15T16:12:35;1.25;;;0.82;;
38717;SDS011;24468;52.128;9.278;2022-10-15T16:15:05;1.85;;;0.90;;
38717;SDS011;24468;52.128;9.278;2022-10-15T16:17:31;4.30;;;1.40;;
38717;SDS011;24468;52.128;9.278;2022-10-15T16:19:57;1.83;;;1.60;;
38717;SDS011;24468;52.128;9.278;2022-10-15T16:22:23;1.70;;;1.10;;
38717;SDS011;24468;52.128;9.278;2022-10-15T16:24:49;4.05;;;0.88;;
38717;SDS011;24468;52.128;9.278;2022-10-15T16:27:14;1.90;;;1.15;;
38717;SDS011;24468;52.128;9.278;2022-10-15T16:29:40;0.73;;;0.63;;
38717;SDS011;24468;52.128;9.278;2022-10-15T16:32:05;2.15;;;0.75;;
38717;SDS011;24468;52.128;9.278;2022-10-15T16:34:31;1.15;;;1.00;;
38717;SDS011;24468;52.128;9.278;2022-10-15T16:36:56;1.10;;;0.63;;
38717;SDS011;24468;52.128;9.278;2022-10-15T16:39:22;0.60;;;0.60;;
38717;SDS011;24468;52.128;9.278;2022-10-15T16:41:48;2.78;;;1.25;;
38717;SDS011;24468;52.128;9.278;2022-10-15T16:44:13;3.50;;;2.72;;
38717;SDS011;24468;52.128;9.278;2022-10-15T16:46:39;3.97;;;2.45;;
38717;SDS011;24468;52.128;9.278;2022-10-15T16:49:05;2.22;;;1.83;;
38717;SDS011;24468;52.128;9.278;2022-10-15T16:51:30;3.88;;;2.40;;
38717;SDS011;24468;52.128;9.278;2022-10-15T16:53:56;3.17;;;2.30;;